createdAt,value
2023-05-14T00:01:15.221Z,66.70
2023-05-14T00:02:56.680Z,66.36
2023-05-14T00:04:38.266Z,65.43
2023-05-14T00:06:19.731Z,65.07
2023-05-14T00:08:01.033Z,65.48
2023-05-14T00:09:42.335Z,65.38
2023-05-14T00:11:23.691Z,65.68
2023-05-14T00:13:04.990Z,64.34
2023-05-14T00:14:46.275Z,63.86
2023-05-14T00:16:27.630Z,63.80
2023-05-14T00:18:08.994Z,63.81
2023-05-14T00:19:50.331Z,64.54
2023-05-14T00:21:31.660Z,64.36
2023-05-14T00:23:12.983Z,63.73
2023-05-14T00:24:54.290Z,63.31
2023-05-14T00:26:35.625Z,64.27
2023-05-14T00:28:16.949Z,63.36
2023-05-14T00:29:58.234Z,63.32
2023-05-14T00:31:39.586Z,62.04
2023-05-14T00:33:20.882Z,61.92
2023-05-14T00:35:02.225Z,60.39
2023-05-14T00:36:43.577Z,59.64
2023-05-14T00:38:24.863Z,59.08
2023-05-14T00:40:06.178Z,58.78
2023-05-14T00:41:47.482Z,58.27
2023-05-14T00:43:28.755Z,59.03
2023-05-14T00:45:10.050Z,58.60
2023-05-14T00:46:51.361Z,59.16
2023-05-14T00:48:32.664Z,59.86
2023-05-14T00:50:13.968Z,60.18
2023-05-14T00:51:55.272Z,59.20
2023-05-14T00:53:36.536Z,58.50
2023-05-14T00:55:17.864Z,58.11
2023-05-14T00:56:59.177Z,58.50
2023-05-14T00:58:40.443Z,58.71
2023-05-14T01:00:21.872Z,59.02
2023-05-14T01:02:03.394Z,58.91
2023-05-14T01:03:44.765Z,59.02
2023-05-14T01:05:26.141Z,58.21
2023-05-14T01:07:07.456Z,57.97
2023-05-14T01:08:48.749Z,58.50
2023-05-14T01:10:30.061Z,59.60
2023-05-14T01:12:11.408Z,60.59
2023-05-14T01:13:52.740Z,61.95
2023-05-14T01:15:34.074Z,62.82
2023-05-14T01:17:15.403Z,62.60
2023-05-14T01:18:56.729Z,62.59
2023-05-14T01:20:38.124Z,62.36
2023-05-14T01:22:19.459Z,61.76
2023-05-14T01:24:00.910Z,62.12
2023-05-14T01:25:42.251Z,60.71
2023-05-14T01:27:23.575Z,60.42
2023-05-14T01:29:04.912Z,60.94
2023-05-14T01:30:46.230Z,61.61
2023-05-14T01:32:27.562Z,60.83
2023-05-14T01:34:08.856Z,60.22
2023-05-14T01:35:50.181Z,60.64
2023-05-14T01:37:31.482Z,60.56
2023-05-14T01:39:12.787Z,60.66
2023-05-14T01:40:54.146Z,61.60
2023-05-14T01:42:35.515Z,61.43
2023-05-14T01:44:16.837Z,62.65
2023-05-14T01:45:58.204Z,62.75
2023-05-14T01:47:39.547Z,61.60
2023-05-14T01:49:20.872Z,60.71
2023-05-14T01:51:02.171Z,62.31
2023-05-14T01:52:43.496Z,63.59
2023-05-14T01:54:24.814Z,64.49
2023-05-14T01:56:06.166Z,64.75
2023-05-14T01:57:47.569Z,65.76
2023-05-14T01:59:28.933Z,64.94
2023-05-14T02:01:10.273Z,65.25
2023-05-14T02:02:51.606Z,64.93
2023-05-14T02:04:32.895Z,64.92
2023-05-14T02:06:14.193Z,65.74
2023-05-14T02:07:55.516Z,65.61
2023-05-14T02:09:36.831Z,65.20
2023-05-14T02:11:18.117Z,65.52
2023-05-14T02:12:59.509Z,64.81
2023-05-14T02:14:40.810Z,65.66
2023-05-14T02:16:22.285Z,65.09
2023-05-14T02:18:03.695Z,65.35
2023-05-14T02:19:45.099Z,64.74
2023-05-14T02:21:26.394Z,64.87
2023-05-14T02:23:07.694Z,64.87
2023-05-14T02:24:48.988Z,64.74
2023-05-14T02:26:30.319Z,65.59
2023-05-14T02:28:11.728Z,64.75
2023-05-14T02:29:53.001Z,63.91
2023-05-14T02:31:34.326Z,64.00
2023-05-14T02:33:15.733Z,63.36
2023-05-14T02:34:57.113Z,62.78
2023-05-14T02:36:38.391Z,62.50
2023-05-14T02:38:19.673Z,61.65
2023-05-14T02:40:00.983Z,61.22
2023-05-14T02:41:42.311Z,62.51
2023-05-14T02:43:23.619Z,63.42
2023-05-14T02:45:04.907Z,63.73
2023-05-14T02:46:46.218Z,63.81
2023-05-14T02:48:27.522Z,63.50
2023-05-14T02:50:08.817Z,63.62
2023-05-14T02:51:50.130Z,63.34
2023-05-14T02:53:31.474Z,62.32
2023-05-14T02:55:12.780Z,62.23
2023-05-14T02:56:54.079Z,63.62
2023-05-14T02:58:35.380Z,63.83
2023-05-14T03:00:16.680Z,65.60
2023-05-14T03:01:58.516Z,66.59
2023-05-14T03:03:40.289Z,67.21
2023-05-14T03:05:22.034Z,67.10
2023-05-14T03:07:03.344Z,66.82
2023-05-14T03:08:44.637Z,65.80
2023-05-14T03:10:26.104Z,65.34
2023-05-14T03:12:07.543Z,64.34
2023-05-14T03:13:48.804Z,64.46
2023-05-14T03:15:30.079Z,63.41
2023-05-14T03:17:11.616Z,62.89
2023-05-14T03:18:53.196Z,63.12
2023-05-14T03:20:34.529Z,63.02
2023-05-14T03:22:15.837Z,62.38
2023-05-14T03:23:57.120Z,62.21
2023-05-14T03:25:38.401Z,63.70
2023-05-14T03:27:19.667Z,64.40
2023-05-14T03:29:00.970Z,65.40
2023-05-14T03:30:42.287Z,65.21
2023-05-14T03:32:23.679Z,65.36
2023-05-14T03:34:05.004Z,65.83
2023-05-14T03:35:46.326Z,66.27
2023-05-14T03:37:27.645Z,65.89
2023-05-14T03:39:08.920Z,66.24
2023-05-14T03:40:50.204Z,66.03
2023-05-14T03:42:31.520Z,67.00
2023-05-14T03:44:12.795Z,67.21
2023-05-14T03:45:54.090Z,66.78
2023-05-14T03:47:35.424Z,67.12
2023-05-14T03:49:16.720Z,66.92
2023-05-14T03:50:58.016Z,66.05
2023-05-14T03:52:39.305Z,66.36
2023-05-14T03:54:20.614Z,66.34
2023-05-14T03:56:01.876Z,65.59
2023-05-14T03:57:43.185Z,66.83
2023-05-14T03:59:24.476Z,66.96
2023-05-14T04:01:05.762Z,67.35
2023-05-14T04:02:47.157Z,67.78
2023-05-14T04:04:28.538Z,67.98
2023-05-14T04:06:09.886Z,67.27
2023-05-14T04:07:51.156Z,67.31
2023-05-14T04:09:32.501Z,67.70
2023-05-14T04:11:13.846Z,67.83
2023-05-14T04:12:55.113Z,66.69
2023-05-14T04:14:36.387Z,67.18
2023-05-14T04:16:17.737Z,68.48
2023-05-14T04:17:59.107Z,68.29
2023-05-14T04:19:40.426Z,68.18
2023-05-14T04:21:21.758Z,68.00
2023-05-14T04:23:03.064Z,67.74
2023-05-14T04:24:44.405Z,66.54
2023-05-14T04:26:25.687Z,65.10
2023-05-14T04:28:06.980Z,63.70
2023-05-14T04:29:48.238Z,62.22
2023-05-14T04:31:29.588Z,61.93
2023-05-14T04:33:11.023Z,61.71
2023-05-14T04:34:52.337Z,62.36
2023-05-14T04:36:33.656Z,62.44
2023-05-14T04:38:14.962Z,63.11
2023-05-14T04:39:56.250Z,63.12
2023-05-14T04:41:37.591Z,62.34
2023-05-14T04:43:18.985Z,61.39
2023-05-14T04:45:00.281Z,61.39
2023-05-14T04:46:41.571Z,62.24
2023-05-14T04:48:22.865Z,61.67
2023-05-14T04:50:04.138Z,62.29
2023-05-14T04:51:45.439Z,62.74
2023-05-14T04:53:26.737Z,63.62
2023-05-14T04:55:08.038Z,62.90
2023-05-14T04:56:49.331Z,63.09
2023-05-14T04:58:32.135Z,62.72
2023-05-14T05:00:14.975Z,62.78
2023-05-14T05:01:56.257Z,61.96
2023-05-14T05:03:37.620Z,62.69
2023-05-14T05:05:18.979Z,61.51
2023-05-14T05:07:00.263Z,60.78
2023-05-14T05:08:41.585Z,60.78
2023-05-14T05:10:23.163Z,62.25
2023-05-14T05:12:04.700Z,62.89
2023-05-14T05:13:46.013Z,64.57
2023-05-14T05:15:27.325Z,64.36
2023-05-14T05:17:08.666Z,63.81
2023-05-14T05:18:50.164Z,64.99
2023-05-14T05:20:31.544Z,65.15
2023-05-14T05:22:12.876Z,66.23
2023-05-14T05:23:54.310Z,65.98
2023-05-14T05:25:35.641Z,67.20
2023-05-14T05:27:16.978Z,66.24
2023-05-14T05:28:58.283Z,66.11
2023-05-14T05:30:39.598Z,65.72
2023-05-14T05:32:20.942Z,65.85
2023-05-14T05:34:02.379Z,66.79
2023-05-14T05:35:43.685Z,66.61
2023-05-14T05:37:24.984Z,66.99
2023-05-14T05:39:06.360Z,66.78
2023-05-14T05:40:47.641Z,66.78
2023-05-14T05:42:28.944Z,65.24
2023-05-14T05:44:10.268Z,64.59
2023-05-14T05:45:51.567Z,64.23
2023-05-14T05:47:32.922Z,64.75
2023-05-14T05:49:14.215Z,65.48
2023-05-14T05:50:55.499Z,64.51
2023-05-14T05:52:36.781Z,63.14
2023-05-14T05:54:18.104Z,62.71
2023-05-14T05:55:59.433Z,62.02
2023-05-14T05:57:40.738Z,61.87
2023-05-14T05:59:22.053Z,60.98
2023-05-14T06:01:03.363Z,60.58
2023-05-14T06:02:44.786Z,59.18
2023-05-14T06:04:26.153Z,58.29
2023-05-14T06:06:07.449Z,57.07
2023-05-14T06:07:48.752Z,57.26
2023-05-14T06:09:30.092Z,57.09
2023-05-14T06:11:11.360Z,55.87
2023-05-14T06:12:52.660Z,55.78
2023-05-14T06:14:33.987Z,56.38
2023-05-14T06:16:15.414Z,55.14
2023-05-14T06:17:56.719Z,55.50
2023-05-14T06:19:38.029Z,55.74
2023-05-14T06:21:19.332Z,54.74
2023-05-14T06:23:00.604Z,53.93
2023-05-14T06:24:41.940Z,53.61
2023-05-14T06:26:23.209Z,53.63
2023-05-14T06:28:04.501Z,53.19
2023-05-14T06:29:45.817Z,53.16
2023-05-14T06:31:27.176Z,53.46
2023-05-14T06:33:08.528Z,52.46
2023-05-14T06:34:49.915Z,52.37
2023-05-14T06:36:31.205Z,51.91
2023-05-14T06:38:12.493Z,52.60
2023-05-14T06:39:54.690Z,53.63
2023-05-14T06:41:37.058Z,55.20
2023-05-14T06:43:18.385Z,55.28
2023-05-14T06:44:59.724Z,54.03
2023-05-14T06:46:41.033Z,53.99
2023-05-14T06:48:22.457Z,54.39
2023-05-14T06:50:03.856Z,54.87
2023-05-14T06:51:45.156Z,55.08
2023-05-14T06:53:26.458Z,54.60
2023-05-14T06:55:07.788Z,55.93
2023-05-14T06:56:49.103Z,56.22
2023-05-14T06:58:30.472Z,56.30
2023-05-14T07:00:11.813Z,56.34
2023-05-14T07:01:53.164Z,56.81
2023-05-14T07:03:34.474Z,56.36
2023-05-14T07:05:15.782Z,56.44
2023-05-14T07:06:57.222Z,57.07
2023-05-14T07:08:38.517Z,57.06
2023-05-14T07:10:19.819Z,56.29
2023-05-14T07:12:01.112Z,56.12
2023-05-14T07:13:42.373Z,56.56
2023-05-14T07:15:23.713Z,56.57
2023-05-14T07:17:05.111Z,56.60
2023-05-14T07:18:46.495Z,56.77
2023-05-14T07:20:27.940Z,56.31
2023-05-14T07:22:09.295Z,57.34
2023-05-14T07:23:50.574Z,56.32
2023-05-14T07:25:31.874Z,55.68
2023-05-14T07:27:13.167Z,57.96
2023-05-14T07:28:54.446Z,56.12
2023-05-14T07:30:35.709Z,55.57
2023-05-14T07:32:17.049Z,54.81
2023-05-14T07:33:58.364Z,55.79
2023-05-14T07:35:39.668Z,56.42
2023-05-14T07:37:21.978Z,56.89
2023-05-14T07:39:04.988Z,57.68
2023-05-14T07:40:46.264Z,57.85
2023-05-14T07:42:36.001Z,58.56
2023-05-14T07:44:18.144Z,57.72
2023-05-14T07:45:59.429Z,57.23
2023-05-14T07:47:40.938Z,57.58
2023-05-14T07:49:22.382Z,58.10
2023-05-14T07:51:03.663Z,59.87
2023-05-14T07:52:44.973Z,62.08
2023-05-14T07:54:26.281Z,61.72
2023-05-14T07:56:07.555Z,62.35
2023-05-14T07:57:48.837Z,64.83
2023-05-14T07:59:30.176Z,64.39
2023-05-14T08:01:11.487Z,64.58
2023-05-14T08:02:53.081Z,63.57
2023-05-14T08:04:34.600Z,64.11
2023-05-14T08:06:15.993Z,64.14
2023-05-14T08:07:57.462Z,63.71
2023-05-14T08:09:38.816Z,63.77
2023-05-14T08:11:20.189Z,64.44
2023-05-14T08:13:01.492Z,63.90
2023-05-14T08:14:42.802Z,62.28
2023-05-14T08:16:24.125Z,61.11
2023-05-14T08:18:05.511Z,61.04
2023-05-14T08:19:46.875Z,60.00
2023-05-14T08:21:28.187Z,61.21
2023-05-14T08:23:09.483Z,60.84
2023-05-14T08:24:50.761Z,60.43
2023-05-14T08:26:32.037Z,59.12
2023-05-14T08:28:13.340Z,59.29
2023-05-14T08:29:54.623Z,59.03
2023-05-14T08:31:35.948Z,59.67
2023-05-14T08:33:17.251Z,59.91
2023-05-14T08:34:58.513Z,59.85
2023-05-14T08:36:39.817Z,59.12
2023-05-14T08:38:21.168Z,59.61
2023-05-14T08:40:02.459Z,60.23
2023-05-14T08:41:43.884Z,58.96
2023-05-14T08:43:25.211Z,57.52
2023-05-14T08:45:06.490Z,58.22
2023-05-14T08:46:47.773Z,59.06
2023-05-14T08:48:29.195Z,58.39
2023-05-14T08:50:10.549Z,56.65
2023-05-14T08:51:51.884Z,56.04
2023-05-14T08:53:33.174Z,55.39
2023-05-14T08:55:14.606Z,55.19
2023-05-14T08:56:55.879Z,56.20
2023-05-14T08:58:37.172Z,57.66
2023-05-14T09:00:18.524Z,56.16
2023-05-14T09:01:59.890Z,54.09
2023-05-14T09:03:41.309Z,53.46
2023-05-14T09:05:22.621Z,53.98
2023-05-14T09:07:03.923Z,52.34
2023-05-14T09:08:45.263Z,52.51
2023-05-14T09:10:26.897Z,49.68
2023-05-14T09:12:08.355Z,50.37
2023-05-14T09:13:49.713Z,52.82
2023-05-14T09:15:31.052Z,52.34
2023-05-14T09:17:12.384Z,53.35
2023-05-14T09:18:53.688Z,53.90
2023-05-14T09:20:35.024Z,53.12
2023-05-14T09:22:16.317Z,54.06
2023-05-14T09:23:57.611Z,54.44
2023-05-14T09:25:38.924Z,54.76
2023-05-14T09:27:20.276Z,55.24
2023-05-14T09:29:01.544Z,55.82
2023-05-14T09:30:42.864Z,55.54
2023-05-14T09:32:24.198Z,55.76
2023-05-14T09:34:05.505Z,54.49
2023-05-14T09:35:46.799Z,55.60
2023-05-14T09:37:28.119Z,56.83
2023-05-14T09:39:09.409Z,58.33
2023-05-14T09:40:50.714Z,56.21
2023-05-14T09:42:32.058Z,56.62
2023-05-14T09:44:13.357Z,55.66
2023-05-14T09:45:54.669Z,54.74
2023-05-14T09:47:36.102Z,57.43
2023-05-14T09:49:17.453Z,58.13
2023-05-14T09:50:58.750Z,54.36
2023-05-14T09:52:40.117Z,55.94
2023-05-14T09:54:21.516Z,50.25
2023-05-14T09:56:02.865Z,53.52
2023-05-14T09:57:44.151Z,56.02
2023-05-14T09:59:25.448Z,56.08
2023-05-14T10:01:06.772Z,55.79
2023-05-14T10:02:48.107Z,55.03
2023-05-14T10:04:29.467Z,56.36
2023-05-14T10:06:10.814Z,56.58
2023-05-14T10:07:52.132Z,56.52
2023-05-14T10:09:33.437Z,56.26
2023-05-14T10:11:14.724Z,55.69
2023-05-14T10:12:56.021Z,57.09
2023-05-14T10:14:37.332Z,59.65
2023-05-14T10:16:18.658Z,57.93
2023-05-14T10:18:00.043Z,60.63
2023-05-14T10:19:41.368Z,59.09
2023-05-14T10:21:22.630Z,59.99
2023-05-14T10:23:03.964Z,61.15
2023-05-14T10:24:45.325Z,59.85
2023-05-14T10:26:26.606Z,59.31
2023-05-14T10:28:07.947Z,58.54
2023-05-14T10:29:49.246Z,59.97
2023-05-14T10:31:30.670Z,60.28
2023-05-14T10:33:12.070Z,59.50
2023-05-14T10:34:53.550Z,58.43
2023-05-14T10:36:34.897Z,56.30
2023-05-14T10:38:16.198Z,56.18
2023-05-14T10:39:57.514Z,55.69
2023-05-14T10:41:38.893Z,54.82
2023-05-14T10:43:20.185Z,54.00
2023-05-14T10:45:01.496Z,54.09
2023-05-14T10:46:42.815Z,53.26
2023-05-14T10:48:24.207Z,50.52
2023-05-14T10:50:05.578Z,52.44
2023-05-14T10:51:46.865Z,53.87
2023-05-14T10:53:28.126Z,50.69
2023-05-14T10:55:09.464Z,50.89
2023-05-14T10:56:50.754Z,49.72
2023-05-14T10:58:32.030Z,49.66
2023-05-14T11:00:13.329Z,51.94
2023-05-14T11:01:54.653Z,52.01
2023-05-14T11:03:35.976Z,51.98
2023-05-14T11:05:17.645Z,52.26
2023-05-14T11:06:59.351Z,53.49
2023-05-14T11:08:40.671Z,51.33
2023-05-14T11:10:22.271Z,50.03
2023-05-14T11:12:03.892Z,50.60
2023-05-14T11:13:45.179Z,52.35
2023-05-14T11:15:26.564Z,53.64
2023-05-14T11:17:07.906Z,53.40
2023-05-14T11:18:49.223Z,54.29
2023-05-14T11:20:30.561Z,51.93
2023-05-14T11:22:11.935Z,52.52
2023-05-14T11:23:53.231Z,53.23
2023-05-14T11:25:34.514Z,51.80
2023-05-14T11:27:15.806Z,52.32
2023-05-14T11:28:57.118Z,54.18
2023-05-14T11:30:38.416Z,52.46
2023-05-14T11:32:19.755Z,51.61
2023-05-14T11:34:01.038Z,56.61
2023-05-14T11:35:42.330Z,55.76
2023-05-14T11:37:23.650Z,56.72
2023-05-14T11:39:04.983Z,57.54
2023-05-14T11:40:46.289Z,57.09
2023-05-14T11:42:27.590Z,54.95
2023-05-14T11:44:09.237Z,53.33
2023-05-14T11:45:50.570Z,53.25
2023-05-14T11:47:31.916Z,52.96
2023-05-14T11:49:13.220Z,52.51
2023-05-14T11:50:54.477Z,53.82
2023-05-14T11:52:35.734Z,54.04
2023-05-14T11:54:17.046Z,57.41
2023-05-14T11:55:58.385Z,60.73
2023-05-14T11:57:39.722Z,62.58
2023-05-14T11:59:21.020Z,61.92
2023-05-14T12:01:02.333Z,62.39
2023-05-14T12:02:43.762Z,62.74
2023-05-14T12:04:25.218Z,63.25
2023-05-14T12:06:06.550Z,61.38
2023-05-14T12:07:47.947Z,59.75
2023-05-14T12:09:29.306Z,58.95
2023-05-14T12:11:10.590Z,59.03
2023-05-14T12:12:51.861Z,59.63
2023-05-14T12:14:33.154Z,57.42
2023-05-14T12:16:14.486Z,57.43
2023-05-14T12:17:55.880Z,60.77
2023-05-14T12:19:37.212Z,59.21
2023-05-14T12:21:18.534Z,54.70
2023-05-14T12:22:59.862Z,54.24
2023-05-14T12:24:41.155Z,52.83
2023-05-14T12:26:22.418Z,52.71
2023-05-14T12:28:03.717Z,50.37
2023-05-14T12:29:44.994Z,49.87
2023-05-14T12:31:26.308Z,47.80
2023-05-14T12:33:07.714Z,48.47
2023-05-14T12:34:49.038Z,50.50
2023-05-14T12:36:30.326Z,50.58
2023-05-14T12:38:11.610Z,52.03
2023-05-14T12:39:52.932Z,52.35
2023-05-14T12:41:34.225Z,50.33
2023-05-14T12:43:15.541Z,49.89
2023-05-14T12:44:56.903Z,49.24
2023-05-14T12:46:38.247Z,51.85
2023-05-14T12:48:19.602Z,51.66
2023-05-14T12:50:00.963Z,52.71
2023-05-14T12:51:42.227Z,52.56
2023-05-14T12:53:23.476Z,52.57
2023-05-14T12:55:04.775Z,51.33
2023-05-14T12:56:46.085Z,51.20
2023-05-14T12:58:27.426Z,51.00
2023-05-14T13:00:08.830Z,53.03
2023-05-14T13:01:50.362Z,54.50
2023-05-14T13:03:31.642Z,52.02
2023-05-14T13:05:12.975Z,51.79
2023-05-14T13:06:54.367Z,53.72
2023-05-14T13:08:35.713Z,56.48
2023-05-14T13:10:17.052Z,55.07
2023-05-14T13:11:58.364Z,51.74
2023-05-14T13:13:39.689Z,52.08
2023-05-14T13:15:21.070Z,51.01
2023-05-14T13:17:02.527Z,52.70
2023-05-14T13:18:43.907Z,49.20
2023-05-14T13:20:25.205Z,47.37
2023-05-14T13:22:06.499Z,48.21
2023-05-14T13:23:47.802Z,49.38
2023-05-14T13:25:29.096Z,48.96
2023-05-14T13:27:10.382Z,47.99
2023-05-14T13:28:51.671Z,48.43
2023-05-14T13:30:32.981Z,51.66
2023-05-14T13:32:14.249Z,56.21
2023-05-14T13:33:55.532Z,56.04
2023-05-14T13:35:36.844Z,56.73
2023-05-14T13:37:18.132Z,55.32
2023-05-14T13:38:59.402Z,56.08
2023-05-14T13:40:40.691Z,56.97
2023-05-14T13:42:21.995Z,57.57
2023-05-14T13:44:03.300Z,57.82
2023-05-14T13:45:44.625Z,58.12
2023-05-14T13:47:25.964Z,61.45
2023-05-14T13:49:07.319Z,58.15
2023-05-14T13:50:48.625Z,58.70
2023-05-14T13:52:29.917Z,59.32
2023-05-14T13:54:11.223Z,58.52
2023-05-14T13:55:52.583Z,57.66
2023-05-14T13:57:33.853Z,57.81
2023-05-14T13:59:15.155Z,58.50
2023-05-14T14:00:56.454Z,59.28
2023-05-14T14:02:37.791Z,58.88
2023-05-14T14:04:19.110Z,60.76
2023-05-14T14:06:00.408Z,62.31
2023-05-14T14:07:41.673Z,62.42
2023-05-14T14:09:22.956Z,60.21
2023-05-14T14:11:04.220Z,60.96
2023-05-14T14:12:45.572Z,60.87
2023-05-14T14:14:26.883Z,59.16
2023-05-14T14:16:08.232Z,59.13
2023-05-14T14:17:49.567Z,59.23
2023-05-14T14:19:30.916Z,58.98
2023-05-14T14:21:12.195Z,60.13
2023-05-14T14:22:53.482Z,59.99
2023-05-14T14:24:34.767Z,59.13
2023-05-14T14:26:16.123Z,60.13
2023-05-14T14:27:57.421Z,58.95
2023-05-14T14:29:38.826Z,59.19
2023-05-14T14:31:20.221Z,59.64
2023-05-14T14:33:01.585Z,59.50
2023-05-14T14:34:42.915Z,59.35
2023-05-14T14:36:24.236Z,60.82
2023-05-14T14:38:05.519Z,59.40
2023-05-14T14:39:46.811Z,58.88
2023-05-14T14:41:28.132Z,59.58
2023-05-14T14:43:09.421Z,58.71
2023-05-14T14:44:50.717Z,58.95
2023-05-14T14:46:32.121Z,57.87
2023-05-14T14:48:13.562Z,57.98
2023-05-14T14:49:54.896Z,57.17
2023-05-14T14:51:36.168Z,59.21
2023-05-14T14:53:17.477Z,57.58
2023-05-14T14:54:58.728Z,54.01
2023-05-14T14:56:39.999Z,55.06
2023-05-14T14:58:21.352Z,55.70
2023-05-14T15:00:02.852Z,55.72
2023-05-14T15:01:44.244Z,56.94
2023-05-14T15:03:25.851Z,56.35
2023-05-14T15:05:07.349Z,56.24
2023-05-14T15:06:48.636Z,55.89
2023-05-14T15:08:29.936Z,56.08
2023-05-14T15:10:11.257Z,57.96
2023-05-14T15:11:52.530Z,59.49
2023-05-14T15:13:33.842Z,59.32
2023-05-14T15:15:15.183Z,59.66
2023-05-14T15:16:56.510Z,59.10
2023-05-14T15:18:37.918Z,58.83
2023-05-14T15:20:19.315Z,59.08
2023-05-14T15:22:00.574Z,59.23
2023-05-14T15:23:41.861Z,58.26
2023-05-14T15:25:23.367Z,57.46
2023-05-14T15:27:04.799Z,59.23
2023-05-14T15:28:46.084Z,59.61
2023-05-14T15:30:27.396Z,59.59
2023-05-14T15:32:08.680Z,60.53
2023-05-14T15:33:49.976Z,60.40
2023-05-14T15:35:31.307Z,61.09
2023-05-14T15:37:12.591Z,61.11
2023-05-14T15:38:53.886Z,61.06
2023-05-14T15:40:35.194Z,60.80
2023-05-14T15:42:16.487Z,62.01
2023-05-14T15:43:57.784Z,61.86
2023-05-14T15:45:39.102Z,60.52
2023-05-14T15:47:20.414Z,59.82
2023-05-14T15:49:01.695Z,60.15
2023-05-14T15:50:42.984Z,61.15
2023-05-14T15:52:24.325Z,60.65
2023-05-14T15:54:05.650Z,59.30
2023-05-14T15:55:46.930Z,60.38
2023-05-14T15:57:28.210Z,59.86
2023-05-14T15:59:09.510Z,59.57
2023-05-14T16:00:50.780Z,60.13
2023-05-14T16:02:32.251Z,60.07
2023-05-14T16:04:13.631Z,58.84
2023-05-14T16:05:54.965Z,58.18
2023-05-14T16:07:36.294Z,58.14
2023-05-14T16:09:17.634Z,58.67
2023-05-14T16:10:58.905Z,58.43
2023-05-14T16:12:40.252Z,58.74
2023-05-14T16:14:21.553Z,59.28
2023-05-14T16:16:02.837Z,59.07
2023-05-14T16:17:44.190Z,58.07
2023-05-14T16:19:26.011Z,58.15
2023-05-14T16:21:07.311Z,59.51
2023-05-14T16:22:48.581Z,58.83
2023-05-14T16:24:29.888Z,59.20
2023-05-14T16:26:11.147Z,57.88
2023-05-14T16:27:52.452Z,57.02
2023-05-14T16:29:33.760Z,57.16
2023-05-14T16:31:15.046Z,57.60
2023-05-14T16:32:56.341Z,57.35
2023-05-14T16:34:37.671Z,57.73
2023-05-14T16:36:18.997Z,58.19
2023-05-14T16:38:00.274Z,58.31
2023-05-14T16:39:41.560Z,57.92
2023-05-14T16:41:22.870Z,55.59
2023-05-14T16:43:04.197Z,56.48
2023-05-14T16:44:45.501Z,56.58
2023-05-14T16:46:26.831Z,57.23
2023-05-14T16:48:08.208Z,56.99
2023-05-14T16:49:49.603Z,56.83
2023-05-14T16:51:30.918Z,56.45
2023-05-14T16:53:12.210Z,57.29
2023-05-14T16:54:53.534Z,58.33
2023-05-14T16:56:34.804Z,58.18
2023-05-14T16:58:16.084Z,56.63
2023-05-14T16:59:57.418Z,56.59
2023-05-14T17:01:38.734Z,56.24
2023-05-14T17:03:20.071Z,55.90
2023-05-14T17:05:01.556Z,56.40
2023-05-14T17:06:42.920Z,57.04
2023-05-14T17:08:24.208Z,58.14
2023-05-14T17:10:05.586Z,58.19
2023-05-14T17:11:46.913Z,57.19
2023-05-14T17:13:28.821Z,57.01
2023-05-14T17:15:10.380Z,55.98
2023-05-14T17:16:51.664Z,56.60
2023-05-14T17:18:33.096Z,55.95
2023-05-14T17:20:16.778Z,55.11
2023-05-14T17:21:58.733Z,54.65
2023-05-14T17:23:40.032Z,54.71
2023-05-14T17:25:21.535Z,54.75
2023-05-14T17:27:03.234Z,53.92
2023-05-14T17:28:44.670Z,53.40
2023-05-14T17:30:26.018Z,53.61
2023-05-14T17:32:08.496Z,53.83
2023-05-14T17:33:49.833Z,53.81
2023-05-14T17:35:31.171Z,53.45
2023-05-14T17:37:12.634Z,52.77
2023-05-14T17:38:53.917Z,53.44
2023-05-14T17:40:35.209Z,53.70
2023-05-14T17:42:17.046Z,52.84
2023-05-14T17:43:58.788Z,53.39
2023-05-14T17:45:53.279Z,55.16
2023-05-14T17:47:35.965Z,55.98
2023-05-14T17:49:17.499Z,56.57
2023-05-14T17:50:58.865Z,57.39
2023-05-14T17:52:40.394Z,57.81
2023-05-14T17:54:22.243Z,58.63
2023-05-14T17:56:03.723Z,59.71
2023-05-14T17:57:45.035Z,61.47
2023-05-14T17:59:26.376Z,61.63
2023-05-14T18:01:08.105Z,61.90
2023-05-14T18:02:49.786Z,62.64
2023-05-14T18:04:31.126Z,61.51
2023-05-14T18:06:12.424Z,62.44
2023-05-14T18:07:53.810Z,63.82
2023-05-14T18:09:35.121Z,64.67
2023-05-14T18:11:17.089Z,64.54
2023-05-14T18:12:58.575Z,64.72
2023-05-14T18:14:40.084Z,66.36
2023-05-14T18:16:21.568Z,66.78
2023-05-14T18:18:02.974Z,65.86
2023-05-14T18:19:44.496Z,66.13
2023-05-14T18:21:25.993Z,65.94
2023-05-14T18:23:07.359Z,64.71
2023-05-14T18:24:48.798Z,64.17
2023-05-14T18:26:32.209Z,64.63
2023-05-14T18:28:14.925Z,66.39
2023-05-14T18:29:56.431Z,67.31
2023-05-14T18:31:37.892Z,66.21
2023-05-14T18:33:19.441Z,65.13
2023-05-14T18:35:01.019Z,66.46
2023-05-14T18:36:42.318Z,64.79
2023-05-14T18:38:23.840Z,64.94
2023-05-14T18:40:05.369Z,64.90
2023-05-14T18:41:46.740Z,63.96
2023-05-14T18:43:28.089Z,63.80
2023-05-14T18:45:09.626Z,63.80
2023-05-14T18:46:51.235Z,63.10
2023-05-14T18:48:32.784Z,62.05
2023-05-14T18:50:14.061Z,61.09
2023-05-14T18:51:55.389Z,60.21
2023-05-14T18:53:36.740Z,59.07
2023-05-14T18:55:18.029Z,59.01
2023-05-14T18:56:59.533Z,58.88
2023-05-14T18:58:40.864Z,59.09
2023-05-14T19:00:22.130Z,58.46
2023-05-14T19:02:03.536Z,59.52
2023-05-14T19:03:45.340Z,59.05
2023-05-14T19:05:27.119Z,58.08
2023-05-14T19:07:08.514Z,57.57
2023-05-14T19:08:50.078Z,57.31
2023-05-14T19:10:31.600Z,56.81
2023-05-14T19:12:13.207Z,58.00
2023-05-14T19:13:54.759Z,57.95
2023-05-14T19:15:36.272Z,58.23
2023-05-14T19:17:19.203Z,57.27
2023-05-14T19:19:02.033Z,56.88
2023-05-14T19:20:43.555Z,58.10
2023-05-14T19:22:25.152Z,58.51
2023-05-14T19:24:06.460Z,58.07
2023-05-14T19:25:47.786Z,59.15
2023-05-14T19:27:29.110Z,58.11
2023-05-14T19:29:10.436Z,57.82
2023-05-14T19:30:51.757Z,58.17
2023-05-14T19:32:33.124Z,57.58
2023-05-14T19:34:14.407Z,57.02
2023-05-14T19:35:56.351Z,57.28
2023-05-14T19:37:37.896Z,57.64
2023-05-14T19:39:19.497Z,56.98
2023-05-14T19:41:01.034Z,57.37
2023-05-14T19:42:42.300Z,57.87
2023-05-14T19:44:23.622Z,57.86
2023-05-14T19:46:06.398Z,59.44
2023-05-14T19:47:48.085Z,60.87
2023-05-14T19:49:29.463Z,61.36
2023-05-14T19:51:10.770Z,60.56
2023-05-14T19:52:52.058Z,60.72
2023-05-14T19:54:33.380Z,60.12
2023-05-14T19:56:14.699Z,59.41
2023-05-14T19:57:56.741Z,60.14
2023-05-14T19:59:38.514Z,58.90
2023-05-14T20:01:20.125Z,58.34
2023-05-14T20:03:01.899Z,58.90
2023-05-14T20:04:43.568Z,58.42
2023-05-14T20:06:25.000Z,58.93
2023-05-14T20:08:06.373Z,59.08
2023-05-14T20:09:47.667Z,59.32
2023-05-14T20:11:29.183Z,60.65
2023-05-14T20:13:10.673Z,60.86
2023-05-14T20:14:52.252Z,61.33
2023-05-14T20:16:33.756Z,61.97
2023-05-14T20:18:15.078Z,62.15
2023-05-14T20:19:56.522Z,61.00
2023-05-14T20:21:38.040Z,61.52
2023-05-14T20:23:19.665Z,61.54
2023-05-14T20:25:01.158Z,61.33
2023-05-14T20:26:42.437Z,61.88
2023-05-14T20:28:24.095Z,62.33
2023-05-14T20:30:05.760Z,62.83
2023-05-14T20:31:47.153Z,62.88
2023-05-14T20:33:28.575Z,62.14
2023-05-14T20:35:09.881Z,61.26
2023-05-14T20:36:51.334Z,60.42
2023-05-14T20:38:32.694Z,59.58
2023-05-14T20:40:14.075Z,60.14
2023-05-14T20:41:55.484Z,59.65
2023-05-14T20:43:37.063Z,60.08
2023-05-14T20:45:18.519Z,60.62
2023-05-14T20:46:59.848Z,60.18
2023-05-14T20:48:41.373Z,59.65
2023-05-14T20:50:22.965Z,59.05
2023-05-14T20:52:04.342Z,59.56
2023-05-14T20:53:45.882Z,60.27
2023-05-14T20:55:27.611Z,60.13
2023-05-14T20:57:09.151Z,60.09
2023-05-14T20:58:50.740Z,60.53
2023-05-14T21:00:32.152Z,59.74
2023-05-14T21:02:13.624Z,59.05
2023-05-14T21:03:55.107Z,58.30
2023-05-14T21:05:36.522Z,58.56
2023-05-14T21:07:17.935Z,59.18
2023-05-14T21:08:59.576Z,60.31
2023-05-14T21:10:41.098Z,61.90
2023-05-14T21:12:22.461Z,62.65
2023-05-14T21:14:03.769Z,63.59
2023-05-14T21:15:45.081Z,63.11
2023-05-14T21:17:26.444Z,63.22
2023-05-14T21:19:07.831Z,62.99
2023-05-14T21:20:49.899Z,63.80
2023-05-14T21:22:31.466Z,63.60
2023-05-14T21:24:12.758Z,61.99
2023-05-14T21:25:54.066Z,61.98
2023-05-14T21:27:35.722Z,60.96
2023-05-14T21:29:17.247Z,62.06
2023-05-14T21:30:58.561Z,61.48
2023-05-14T21:32:39.931Z,62.40
2023-05-14T21:34:21.956Z,61.41
2023-05-14T21:36:03.465Z,60.68
2023-05-14T21:37:44.799Z,60.62
2023-05-14T21:39:26.372Z,61.47
2023-05-14T21:41:08.018Z,62.21
2023-05-14T21:42:49.426Z,61.23
2023-05-14T21:44:30.741Z,61.76
2023-05-14T21:46:12.507Z,64.11